createdAt,value
2023-02-07T00:01:45.178Z,48.25
2023-02-07T00:04:14.288Z,48.75
2023-02-07T00:06:43.025Z,57.00
2023-02-07T00:09:13.366Z,54.00
2023-02-07T00:11:41.928Z,53.75
2023-02-07T00:14:12.536Z,56.00
2023-02-07T00:16:43.743Z,54.75
2023-02-07T00:19:12.808Z,56.00
2023-02-07T00:21:41.679Z,59.00
2023-02-07T00:24:10.158Z,54.00
2023-02-07T00:26:38.804Z,53.00
2023-02-07T00:29:07.569Z,55.25
2023-02-07T00:31:36.963Z,57.50
2023-02-07T00:34:09.188Z,57.25
2023-02-07T00:36:38.893Z,49.75
2023-02-07T00:39:09.623Z,50.00
2023-02-07T00:41:38.266Z,48.75
2023-02-07T00:44:07.510Z,52.00
2023-02-07T00:46:36.804Z,50.50
2023-02-07T00:49:07.881Z,50.50
2023-02-07T00:51:36.644Z,51.50
2023-02-07T00:54:05.637Z,48.75
2023-02-07T00:56:35.117Z,47.50
2023-02-07T00:59:03.884Z,49.75
2023-02-07T01:01:32.355Z,51.50
2023-02-07T01:04:01.423Z,51.00
2023-02-07T01:06:33.883Z,51.75
2023-02-07T01:09:03.771Z,50.75
2023-02-07T01:11:32.632Z,50.25
2023-02-07T01:14:02.073Z,54.25
2023-02-07T01:16:33.390Z,49.50
2023-02-07T01:19:05.497Z,45.25
2023-02-07T01:21:35.728Z,52.75
2023-02-07T01:24:06.616Z,52.00
2023-02-07T01:26:37.189Z,45.75
2023-02-07T01:29:06.713Z,45.25
2023-02-07T01:31:36.853Z,48.50
2023-02-07T01:34:05.942Z,51.75
2023-02-07T01:36:36.231Z,51.25
2023-02-07T01:39:05.445Z,51.75
2023-02-07T01:41:36.416Z,47.25
2023-02-07T01:44:08.138Z,56.00
2023-02-07T01:46:38.768Z,43.75
2023-02-07T01:49:13.952Z,48.25
2023-02-07T01:51:49.455Z,47.75
2023-02-07T01:54:18.893Z,49.25
2023-02-07T01:56:55.431Z,48.25
2023-02-07T01:59:25.963Z,52.00
2023-02-07T02:01:55.399Z,44.00
2023-02-07T02:04:24.324Z,48.00
2023-02-07T02:06:58.430Z,48.00
2023-02-07T02:09:29.562Z,44.25
2023-02-07T02:12:16.376Z,46.75
2023-02-07T02:15:05.245Z,49.75
2023-02-07T02:17:55.697Z,47.25
2023-02-07T02:21:08.419Z,47.00
2023-02-07T02:23:52.452Z,45.50
2023-02-07T02:26:45.195Z,50.25
2023-02-07T02:29:51.268Z,48.50
2023-02-07T02:32:59.364Z,46.50
2023-02-07T02:35:37.189Z,50.00
2023-02-07T02:38:16.565Z,51.25
2023-02-07T02:40:54.267Z,57.25
2023-02-07T02:43:31.371Z,52.75
2023-02-07T02:46:03.037Z,54.75
2023-02-07T02:48:32.648Z,53.50
2023-02-07T02:51:03.206Z,60.00
2023-02-07T02:53:31.992Z,57.25
2023-02-07T02:56:22.374Z,59.00
2023-02-07T02:59:09.144Z,54.50
2023-02-07T03:01:50.478Z,57.50
2023-02-07T03:05:15.908Z,58.75
2023-02-07T03:07:57.311Z,50.75
2023-02-07T03:10:37.427Z,42.75
2023-02-07T03:13:15.440Z,54.25
2023-02-07T03:15:57.767Z,50.25
2023-02-07T03:18:33.007Z,57.00
2023-02-07T03:21:05.344Z,55.25
2023-02-07T03:23:36.184Z,59.50
2023-02-07T03:26:06.819Z,57.25
2023-02-07T03:28:37.403Z,56.25
2023-02-07T03:31:08.629Z,60.75
2023-02-07T03:33:38.171Z,53.50
2023-02-07T03:36:12.781Z,59.25
2023-02-07T03:38:42.722Z,63.00
2023-02-07T03:41:16.801Z,61.50
2023-02-07T03:43:46.025Z,54.25
2023-02-07T03:46:14.834Z,58.00
2023-02-07T03:48:43.200Z,62.00
2023-02-07T03:51:11.535Z,59.75
2023-02-07T03:53:40.139Z,55.00
2023-02-07T03:56:10.284Z,56.50
2023-02-07T03:58:38.628Z,49.75
2023-02-07T04:01:07.086Z,57.00
2023-02-07T04:03:35.800Z,60.75
2023-02-07T04:06:04.306Z,53.50
2023-02-07T04:08:33.909Z,48.75
2023-02-07T04:11:04.379Z,56.50
2023-02-07T04:13:34.576Z,60.25
2023-02-07T04:16:02.981Z,51.00
2023-02-07T04:18:31.439Z,56.50
2023-02-07T04:21:03.999Z,55.00
2023-02-07T04:23:33.163Z,54.00
2023-02-07T04:26:02.288Z,54.75
2023-02-07T04:28:31.634Z,59.50
2023-02-07T04:31:01.777Z,54.00
2023-02-07T04:33:30.344Z,53.75
2023-02-07T04:36:00.100Z,58.00
2023-02-07T04:38:30.160Z,51.00
2023-02-07T04:41:00.402Z,57.50
2023-02-07T04:43:28.725Z,56.50
2023-02-07T04:45:57.743Z,57.00
2023-02-07T04:48:27.528Z,56.50
2023-02-07T04:50:56.608Z,47.75
2023-02-07T04:53:25.013Z,60.00
2023-02-07T04:55:55.482Z,30.75
2023-02-07T04:58:24.744Z,50.75
2023-02-07T05:00:54.386Z,57.50
2023-02-07T05:03:22.840Z,51.50
2023-02-07T05:05:54.874Z,57.25
2023-02-07T05:08:25.289Z,56.25
2023-02-07T05:10:55.282Z,53.00
2023-02-07T05:13:24.332Z,53.50
2023-02-07T05:15:53.257Z,52.50
2023-02-07T05:18:22.130Z,52.00
2023-02-07T05:20:52.413Z,46.75
2023-02-07T05:23:22.481Z,48.75
2023-02-07T05:25:51.015Z,52.25
2023-02-07T05:28:19.843Z,53.50
2023-02-07T05:30:48.412Z,54.75
2023-02-07T05:33:16.050Z,48.25
2023-02-07T05:35:46.083Z,51.25
2023-02-07T05:38:17.336Z,62.75
2023-02-07T05:40:48.558Z,58.00
2023-02-07T05:43:17.704Z,61.00
2023-02-07T05:45:46.995Z,62.50
2023-02-07T05:48:15.776Z,52.75
2023-02-07T05:50:44.152Z,54.75
2023-02-07T05:53:13.219Z,65.00
2023-02-07T05:55:42.337Z,63.50
2023-02-07T05:58:12.419Z,63.75
2023-02-07T06:00:40.985Z,56.00
2023-02-07T06:03:09.300Z,53.00
2023-02-07T06:05:38.058Z,57.00
2023-02-07T06:08:07.088Z,57.75
2023-02-07T06:10:35.476Z,61.00
2023-02-07T06:13:04.175Z,55.50
2023-02-07T06:15:34.276Z,50.25
2023-02-07T06:18:02.802Z,54.25
2023-02-07T06:20:31.181Z,48.00
2023-02-07T06:23:00.269Z,57.00
2023-02-07T06:25:28.748Z,52.00
2023-02-07T06:27:57.319Z,57.75
2023-02-07T06:30:25.697Z,51.75
2023-02-07T06:32:55.789Z,54.75
2023-02-07T06:35:24.629Z,51.00
2023-02-07T06:37:55.104Z,52.00
2023-02-07T06:40:23.936Z,56.75
2023-02-07T06:42:52.551Z,60.00
2023-02-07T06:45:21.203Z,52.50
2023-02-07T06:47:50.234Z,57.75
2023-02-07T06:50:20.122Z,53.00
2023-02-07T06:52:48.515Z,57.25
2023-02-07T06:55:17.646Z,53.50
2023-02-07T06:57:46.030Z,53.00
2023-02-07T07:00:15.991Z,59.00
2023-02-07T07:02:44.445Z,58.25
2023-02-07T07:05:14.916Z,59.50
2023-02-07T07:07:46.620Z,64.75
2023-02-07T07:10:15.192Z,55.75
2023-02-07T07:12:43.627Z,61.00
2023-02-07T07:15:12.489Z,51.25
2023-02-07T07:17:41.181Z,69.25
2023-02-07T07:20:11.458Z,67.50
2023-02-07T07:22:40.343Z,68.25
2023-02-07T07:25:10.949Z,75.00
2023-02-07T07:27:39.470Z,67.00
2023-02-07T07:30:10.571Z,69.75
2023-02-07T07:32:39.726Z,69.00
2023-02-07T07:35:09.012Z,63.75
2023-02-07T07:37:37.362Z,62.00
2023-02-07T07:40:06.796Z,53.75
2023-02-07T07:42:37.035Z,54.50
2023-02-07T07:45:22.930Z,60.75
2023-02-07T07:47:51.417Z,64.25
2023-02-07T07:50:19.958Z,60.50
2023-02-07T07:52:48.638Z,60.00
2023-02-07T07:55:17.465Z,63.75
2023-02-07T07:57:47.702Z,62.00
2023-02-07T08:00:16.829Z,65.50
2023-02-07T08:02:45.448Z,58.50
2023-02-07T08:05:14.131Z,62.50
2023-02-07T08:07:42.814Z,60.50
2023-02-07T08:10:11.729Z,64.25
2023-02-07T08:12:41.138Z,63.00
2023-02-07T08:15:14.047Z,64.25
2023-02-07T08:17:42.590Z,63.00
2023-02-07T08:20:12.577Z,55.00
2023-02-07T08:22:41.875Z,57.75
2023-02-07T08:25:11.284Z,56.50
2023-02-07T08:27:40.194Z,58.00
2023-02-07T08:30:13.384Z,66.25
2023-02-07T08:32:42.392Z,56.75
2023-02-07T08:35:11.338Z,48.00
2023-02-07T08:37:40.199Z,62.25
2023-02-07T08:40:09.943Z,64.00
2023-02-07T08:42:38.339Z,59.00
2023-02-07T08:45:07.453Z,55.75
2023-02-07T08:47:37.663Z,54.75
2023-02-07T08:50:07.060Z,59.75
2023-02-07T08:52:35.543Z,62.75
2023-02-07T08:55:04.180Z,60.00
2023-02-07T08:57:33.737Z,62.50
2023-02-07T09:00:02.340Z,59.25
2023-02-07T09:02:31.028Z,61.25
2023-02-07T09:05:00.795Z,64.00
2023-02-07T09:07:29.300Z,68.50
2023-02-07T09:09:57.607Z,65.00
2023-02-07T09:12:25.963Z,66.25
2023-02-07T09:14:54.808Z,72.00
2023-02-07T09:17:23.476Z,68.50
2023-02-07T09:19:51.993Z,63.50
2023-02-07T09:22:21.972Z,66.75
2023-02-07T09:24:50.506Z,69.50
2023-02-07T09:27:19.214Z,63.25
2023-02-07T09:29:47.631Z,63.25
2023-02-07T09:32:16.163Z,66.00
2023-02-07T09:34:44.841Z,65.75
2023-02-07T09:37:13.411Z,70.75
2023-02-07T09:39:44.657Z,64.50
2023-02-07T09:42:25.850Z,72.00
2023-02-07T09:45:02.395Z,62.25
2023-02-07T09:47:33.289Z,61.50
2023-02-07T09:50:07.403Z,94.00
2023-02-07T09:52:42.305Z,79.00
2023-02-07T09:55:20.312Z,65.50
2023-02-07T09:57:52.908Z,80.00
2023-02-07T10:00:24.784Z,68.00
2023-02-07T10:02:58.145Z,69.25
2023-02-07T10:05:32.248Z,69.75
2023-02-07T10:08:01.027Z,66.25
2023-02-07T10:10:40.419Z,76.25
2023-02-07T10:13:23.431Z,73.75
2023-02-07T10:16:09.160Z,62.75
2023-02-07T10:18:45.826Z,71.00
2023-02-07T10:21:22.580Z,70.25
2023-02-07T10:24:23.415Z,69.50
2023-02-07T10:26:56.057Z,73.50
2023-02-07T10:29:43.799Z,72.00
2023-02-07T10:32:16.689Z,71.25
2023-02-07T10:34:47.933Z,68.50
2023-02-07T10:37:21.591Z,70.00
2023-02-07T10:39:55.812Z,69.25
2023-02-07T10:42:25.695Z,68.50
2023-02-07T10:44:54.377Z,72.75
2023-02-07T10:47:23.482Z,61.50
2023-02-07T10:49:54.802Z,69.25
2023-02-07T10:52:30.730Z,69.25
2023-02-07T10:55:01.097Z,69.50
2023-02-07T10:57:32.199Z,66.25
2023-02-07T11:00:04.189Z,68.75
2023-02-07T11:02:52.147Z,67.50
2023-02-07T11:05:42.610Z,68.50
2023-02-07T11:08:24.771Z,58.00
2023-02-07T11:10:55.520Z,58.25
2023-02-07T11:13:28.821Z,64.00
2023-02-07T11:16:01.690Z,63.50
2023-02-07T11:18:38.242Z,66.00
2023-02-07T11:21:09.327Z,77.50
2023-02-07T11:23:45.306Z,140.00
2023-02-07T11:26:16.159Z,53.00
2023-02-07T11:28:46.724Z,65.50
2023-02-07T11:31:19.282Z,69.50
2023-02-07T11:33:48.952Z,66.25
2023-02-07T11:36:26.381Z,62.75
2023-02-07T11:38:58.250Z,61.75
2023-02-07T11:41:28.600Z,64.25
2023-02-07T11:44:02.203Z,63.50
2023-02-07T11:46:38.104Z,62.50
2023-02-07T11:49:11.550Z,60.00
2023-02-07T11:51:40.137Z,63.00
2023-02-07T11:54:09.164Z,66.75
2023-02-07T11:56:42.054Z,66.25
2023-02-07T11:59:18.641Z,66.25
2023-02-07T12:01:52.318Z,68.00
2023-02-07T12:04:26.075Z,66.25
2023-02-07T12:07:00.206Z,65.75
2023-02-07T12:09:37.158Z,65.50
2023-02-07T12:12:17.758Z,64.25
2023-02-07T12:14:53.172Z,60.25
2023-02-07T12:17:29.156Z,68.50
2023-02-07T12:20:04.811Z,67.00
2023-02-07T12:22:42.112Z,63.00
2023-02-07T12:25:21.854Z,64.00
2023-02-07T12:27:53.894Z,60.50
2023-02-07T12:30:32.255Z,59.00
2023-02-07T12:33:12.186Z,64.25
2023-02-07T12:35:57.031Z,58.25
2023-02-07T12:38:29.545Z,63.50
2023-02-07T12:41:04.693Z,53.25
2023-02-07T12:43:41.920Z,55.25
2023-02-07T12:46:28.071Z,58.00
2023-02-07T12:49:12.338Z,64.00
2023-02-07T12:51:53.427Z,64.00
2023-02-07T12:54:35.784Z,62.00
2023-02-07T12:57:12.670Z,62.00
2023-02-07T12:59:54.556Z,55.75
2023-02-07T13:02:39.782Z,65.00
2023-02-07T13:05:34.806Z,60.00
2023-02-07T13:08:17.248Z,57.00
2023-02-07T13:10:57.695Z,62.25
2023-02-07T13:13:33.046Z,60.00
2023-02-07T13:16:09.396Z,66.50
2023-02-07T13:18:47.794Z,66.25
2023-02-07T13:21:25.075Z,59.75
2023-02-07T13:24:00.132Z,59.50
2023-02-07T13:26:29.852Z,68.75
2023-02-07T13:29:00.908Z,48.25
2023-02-07T13:31:38.618Z,49.50
2023-02-07T13:34:17.211Z,33.50
2023-02-07T13:36:49.484Z,52.50
2023-02-07T13:39:27.704Z,23.50
2023-02-07T13:42:11.034Z,40.25
2023-02-07T13:44:50.168Z,60.25
2023-02-07T13:47:41.826Z,57.25
2023-02-07T13:50:25.683Z,56.00
2023-02-07T13:53:00.400Z,18.75
2023-02-07T13:55:34.934Z,22.00
2023-02-07T13:58:29.762Z,53.50
2023-02-07T14:01:11.766Z,78.25
2023-02-07T14:03:40.766Z,26.25
2023-02-07T14:06:23.937Z,42.50
2023-02-07T14:09:06.090Z,49.25
2023-02-07T14:11:41.548Z,47.25
2023-02-07T14:14:27.049Z,39.25
2023-02-07T14:16:57.853Z,29.00
2023-02-07T14:19:58.849Z,18.50
2023-02-07T14:22:31.294Z,20.00
2023-02-07T14:25:23.408Z,44.50
2023-02-07T14:28:19.135Z,19.50
2023-02-07T14:31:14.671Z,16.00
2023-02-07T14:33:43.319Z,20.25
2023-02-07T14:36:26.833Z,57.50
2023-02-07T14:39:23.869Z,59.00
2023-02-07T14:41:53.808Z,29.25
2023-02-07T14:44:26.233Z,23.50
2023-02-07T14:46:58.041Z,55.50
2023-02-07T14:49:34.537Z,49.75
2023-02-07T14:52:07.847Z,31.75
2023-02-07T14:54:45.136Z,25.75
2023-02-07T14:57:27.027Z,38.00
2023-02-07T15:00:05.169Z,51.50
2023-02-07T15:02:37.005Z,43.25
2023-02-07T15:05:28.464Z,18.25
2023-02-07T15:08:07.847Z,25.75
2023-02-07T15:10:42.007Z,42.75
2023-02-07T15:13:22.643Z,65.25
2023-02-07T15:15:54.806Z,74.75
2023-02-07T15:18:26.532Z,63.50
2023-02-07T15:20:58.433Z,70.00
2023-02-07T15:23:30.207Z,30.25
2023-02-07T15:26:06.921Z,42.00
2023-02-07T15:28:35.781Z,47.25
2023-02-07T15:31:07.588Z,25.75
2023-02-07T15:33:41.194Z,30.25
2023-02-07T15:36:32.628Z,62.50
2023-02-07T15:39:03.718Z,50.25
2023-02-07T15:41:34.149Z,76.00
2023-02-07T15:44:04.311Z,53.50
2023-02-07T15:46:47.438Z,27.50
2023-02-07T15:49:31.152Z,64.50
2023-02-07T15:52:07.045Z,56.00
2023-02-07T15:54:40.353Z,57.50
2023-02-07T15:57:20.007Z,44.50
2023-02-07T15:59:52.278Z,45.75
2023-02-07T16:02:26.746Z,34.25
2023-02-07T16:04:55.327Z,29.50
2023-02-07T16:07:25.561Z,31.00
2023-02-07T16:09:54.103Z,68.50
2023-02-07T16:12:48.334Z,25.50
2023-02-07T16:15:26.231Z,24.75
2023-02-07T16:17:54.931Z,45.00
2023-02-07T16:20:24.670Z,66.25
2023-02-07T16:22:53.871Z,38.75
2023-02-07T16:25:25.265Z,28.50
2023-02-07T16:27:55.983Z,31.00
2023-02-07T16:30:36.879Z,31.00
2023-02-07T16:33:06.389Z,30.00
2023-02-07T16:35:35.244Z,26.25
2023-02-07T16:38:03.896Z,29.75
2023-02-07T16:40:32.553Z,66.00
2023-02-07T16:43:06.429Z,52.00
2023-02-07T16:45:35.895Z,64.25
2023-02-07T16:48:04.994Z,69.00
2023-02-07T16:50:33.641Z,39.25
2023-02-07T16:53:02.296Z,50.00
2023-02-07T16:55:30.900Z,55.00
2023-02-07T16:58:00.053Z,52.50
2023-02-07T17:00:29.990Z,46.25
2023-02-07T17:02:59.481Z,57.50
2023-02-07T17:05:28.304Z,48.00
2023-02-07T17:07:56.652Z,46.75
2023-02-07T17:10:27.622Z,54.50
2023-02-07T17:12:56.347Z,60.75
2023-02-07T17:15:24.931Z,66.25
2023-02-07T17:17:54.792Z,68.00
2023-02-07T17:20:26.378Z,57.00
2023-02-07T17:22:56.986Z,60.25
2023-02-07T17:25:29.805Z,59.00
2023-02-07T17:27:59.842Z,63.00
2023-02-07T17:30:30.695Z,64.75
2023-02-07T17:33:00.662Z,51.50
2023-02-07T17:35:29.129Z,43.00
2023-02-07T17:37:58.673Z,40.25
2023-02-07T17:40:30.407Z,24.50
2023-02-07T17:43:00.293Z,46.00
2023-02-07T17:45:30.885Z,53.00
2023-02-07T17:48:01.313Z,29.25
2023-02-07T17:50:31.728Z,38.00
2023-02-07T17:53:01.591Z,45.25
2023-02-07T17:55:32.408Z,56.00
2023-02-07T17:58:02.229Z,65.00
2023-02-07T18:00:33.679Z,72.50
2023-02-07T18:03:04.104Z,92.75
2023-02-07T18:05:33.430Z,72.25
2023-02-07T18:08:02.316Z,48.00
2023-02-07T18:10:32.432Z,41.00
2023-02-07T18:13:01.646Z,47.25
2023-02-07T18:15:31.475Z,50.75
2023-02-07T18:18:00.021Z,46.00
2023-02-07T18:20:34.966Z,34.50
2023-02-07T18:23:03.859Z,43.75
2023-02-07T18:25:33.082Z,34.25
2023-02-07T18:28:01.881Z,45.25
2023-02-07T18:30:34.053Z,30.00
2023-02-07T18:33:02.988Z,40.75
2023-02-07T18:35:33.821Z,29.00
2023-02-07T18:38:02.303Z,42.50
2023-02-07T18:40:31.216Z,37.75
2023-02-07T18:42:59.595Z,30.75
2023-02-07T18:45:27.983Z,34.25
2023-02-07T18:47:56.475Z,36.75
2023-02-07T18:50:25.468Z,41.75
2023-02-07T18:52:55.783Z,36.00
2023-02-07T18:55:24.306Z,57.25
2023-02-07T18:57:55.775Z,102.75
2023-02-07T19:00:24.655Z,57.75
2023-02-07T19:02:53.148Z,73.25
2023-02-07T19:05:21.594Z,71.75
2023-02-07T19:07:49.971Z,67.50
2023-02-07T19:10:20.025Z,104.75
2023-02-07T19:12:48.356Z,103.50
2023-02-07T19:15:16.783Z,64.00
2023-02-07T19:17:45.122Z,62.00
2023-02-07T19:20:14.217Z,60.25
2023-02-07T19:22:43.000Z,48.00
2023-02-07T19:25:11.347Z,19.75
2023-02-07T19:27:41.163Z,38.25
2023-02-07T19:30:10.793Z,45.00
2023-02-07T19:32:39.306Z,34.75
2023-02-07T19:35:10.140Z,33.75
2023-02-07T19:37:38.882Z,45.75
2023-02-07T19:40:08.219Z,40.75
2023-02-07T19:42:36.927Z,39.25
2023-02-07T19:45:07.275Z,36.75
2023-02-07T19:47:35.657Z,36.25
2023-02-07T19:50:04.440Z,38.75
2023-02-07T19:52:32.801Z,39.75
2023-02-07T19:55:01.135Z,31.50
2023-02-07T19:57:29.467Z,30.50
2023-02-07T19:59:57.841Z,39.00
2023-02-07T20:02:27.648Z,51.50
2023-02-07T20:04:56.012Z,33.50
2023-02-07T20:07:24.523Z,38.50
2023-02-07T20:09:52.919Z,32.25
2023-02-07T20:12:21.936Z,39.75
2023-02-07T20:14:50.398Z,33.75
2023-02-07T20:17:18.793Z,39.00
2023-02-07T20:19:48.568Z,35.50
2023-02-07T20:22:16.914Z,35.25
2023-02-07T20:24:45.385Z,38.50
2023-02-07T20:27:13.825Z,34.75
2023-02-07T20:29:42.317Z,33.00
2023-02-07T20:32:12.786Z,38.00
2023-02-07T20:34:41.634Z,45.00
2023-02-07T20:37:12.469Z,41.00
2023-02-07T20:39:41.639Z,34.75
2023-02-07T20:42:12.969Z,35.75
2023-02-07T20:44:41.439Z,32.00
2023-02-07T20:47:12.718Z,30.25
2023-02-07T20:49:41.198Z,31.50
2023-02-07T20:52:09.585Z,41.00
2023-02-07T20:54:39.356Z,32.00
2023-02-07T20:57:08.263Z,38.50
2023-02-07T20:59:36.889Z,40.50
2023-02-07T21:02:05.439Z,40.25
2023-02-07T21:04:35.026Z,41.50
2023-02-07T21:07:03.498Z,33.75
2023-02-07T21:09:32.432Z,45.00
2023-02-07T21:12:02.368Z,39.00
2023-02-07T21:14:33.491Z,36.25
2023-02-07T21:17:04.121Z,34.25
2023-02-07T21:19:32.799Z,41.75
2023-02-07T21:22:01.115Z,35.50
2023-02-07T21:24:29.732Z,24.00
2023-02-07T21:26:58.456Z,32.00
2023-02-07T21:29:29.217Z,37.50
2023-02-07T21:31:59.221Z,38.00
2023-02-07T21:34:27.850Z,22.00
2023-02-07T21:36:56.319Z,24.00
2023-02-07T21:39:25.277Z,35.50
2023-02-07T21:41:54.046Z,45.75
2023-02-07T21:44:23.032Z,47.00
2023-02-07T21:46:52.784Z,37.25
2023-02-07T21:49:22.284Z,36.25
2023-02-07T21:51:53.909Z,49.50
2023-02-07T21:54:22.887Z,49.00
2023-02-07T21:56:52.635Z,54.75
2023-02-07T21:59:22.586Z,49.00
2023-02-07T22:01:52.906Z,48.00
2023-02-07T22:04:22.990Z,57.75
2023-02-07T22:06:51.544Z,54.50
2023-02-07T22:09:22.132Z,65.50
2023-02-07T22:11:52.199Z,51.00
2023-02-07T22:14:21.370Z,42.50
2023-02-07T22:16:54.101Z,44.25
2023-02-07T22:19:23.354Z,43.50
2023-02-07T22:21:52.391Z,43.75
2023-02-07T22:24:22.119Z,30.00
2023-02-07T22:26:52.864Z,37.00
2023-02-07T22:29:21.247Z,36.25
2023-02-07T22:31:49.716Z,35.75
2023-02-07T22:34:19.547Z,35.00
2023-02-07T22:36:48.235Z,37.50
2023-02-07T22:39:19.046Z,36.50
2023-02-07T22:41:48.105Z,37.75
2023-02-07T22:44:16.640Z,36.75
2023-02-07T22:46:48.791Z,33.50
2023-02-07T22:49:17.589Z,39.00
2023-02-07T22:51:47.732Z,38.00
2023-02-07T22:54:18.942Z,29.00
2023-02-07T22:56:47.925Z,38.75
2023-02-07T22:59:16.415Z,33.50
2023-02-07T23:01:46.248Z,33.25
2023-02-07T23:04:17.853Z,36.00
2023-02-07T23:06:49.298Z,35.50
2023-02-07T23:09:17.778Z,38.75
2023-02-07T23:11:47.125Z,30.25
2023-02-07T23:14:16.829Z,37.00
2023-02-07T23:16:45.352Z,36.25
2023-02-07T23:19:17.729Z,44.50
2023-02-07T23:21:48.076Z,33.75
2023-02-07T23:24:16.533Z,41.75
2023-02-07T23:26:44.986Z,41.75
2023-02-07T23:29:14.053Z,40.50
2023-02-07T23:31:42.579Z,37.50
2023-02-07T23:34:11.382Z,43.75
2023-02-07T23:36:41.256Z,32.50
2023-02-07T23:39:11.722Z,47.75
2023-02-07T23:41:40.386Z,39.75
2023-02-07T23:44:09.282Z,48.75
2023-02-07T23:46:38.741Z,45.25
2023-02-07T23:49:07.800Z,48.25
2023-02-07T23:51:36.534Z,47.50
2023-02-07T23:54:05.937Z,45.75
2023-02-07T23:56:36.416Z,42.00
2023-02-07T23:59:04.893Z,39.75
